sensor_id;sensor_type;location;lat;lon;timestamp;P1;durP1;ratioP1;P2;durP2;ratioP2
28343;SDS011;15597;50.914;6.638;2024-01-07T00:00:18;17.27;;;7.47;;
28343;SDS011;15597;50.914;6.638;2024-01-07T00:02:44;21.00;;;8.80;;
28343;SDS011;15597;50.914;6.638;2024-01-07T00:05:09;32.08;;;13.43;;
28343;SDS011;15597;50.914;6.638;2024-01-07T00:07:35;38.92;;;14.85;;
28343;SDS011;15597;50.914;6.638;2024-01-07T00:10:01;22.92;;;10.05;;
28343;SDS011;15597;50.914;6.638;2024-01-07T00:12:26;16.92;;;7.43;;
28343;SDS011;15597;50.914;6.638;2024-01-07T00:14:52;28.63;;;11.88;;
28343;SDS011;15597;50.914;6.638;2024-01-07T00:17:17;26.13;;;10.48;;
28343;SDS011;15597;50.914;6.638;2024-01-07T00:19:43;33.60;;;14.07;;
28343;SDS011;15597;50.914;6.638;2024-01-07T00:22:08;28.75;;;10.88;;
28343;SDS011;15597;50.914;6.638;2024-01-07T00:24:34;20.20;;;8.38;;
28343;SDS011;15597;50.914;6.638;2024-01-07T00:26:59;37.83;;;15.38;;
28343;SDS011;15597;50.914;6.638;2024-01-07T00:29:25;30.52;;;12.07;;
28343;SDS011;15597;50.914;6.638;2024-01-07T00:31:50;17.33;;;7.40;;
28343;SDS011;15597;50.914;6.638;2024-01-07T00:34:16;21.67;;;8.98;;
28343;SDS011;15597;50.914;6.638;2024-01-07T00:36:41;16.27;;;7.07;;
28343;SDS011;15597;50.914;6.638;2024-01-07T00:39:07;19.23;;;8.13;;
28343;SDS011;15597;50.914;6.638;2024-01-07T00:41:33;20.45;;;9.18;;
28343;SDS011;15597;50.914;6.638;2024-01-07T00:43:59;31.65;;;13.18;;
28343;SDS011;15597;50.914;6.638;2024-01-07T00:46:24;21.77;;;10.55;;
28343;SDS011;15597;50.914;6.638;2024-01-07T00:48:50;19.75;;;8.68;;
28343;SDS011;15597;50.914;6.638;2024-01-07T00:51:15;19.38;;;8.80;;
28343;SDS011;15597;50.914;6.638;2024-01-07T00:53:41;23.23;;;9.63;;
28343;SDS011;15597;50.914;6.638;2024-01-07T00:56:06;18.75;;;8.20;;
28343;SDS011;15597;50.914;6.638;2024-01-07T00:58:32;30.00;;;12.07;;
28343;SDS011;15597;50.914;6.638;2024-01-07T01:00:58;25.38;;;10.38;;
28343;SDS011;15597;50.914;6.638;2024-01-07T01:03:25;19.67;;;8.65;;
28343;SDS011;15597;50.914;6.638;2024-01-07T01:05:52;22.58;;;9.70;;
28343;SDS011;15597;50.914;6.638;2024-01-07T01:08:17;19.38;;;8.82;;
28343;SDS011;15597;50.914;6.638;2024-01-07T01:10:43;25.52;;;11.00;;
28343;SDS011;15597;50.914;6.638;2024-01-07T01:13:09;17.95;;;8.15;;
28343;SDS011;15597;50.914;6.638;2024-01-07T01:15:35;18.75;;;8.82;;
28343;SDS011;15597;50.914;6.638;2024-01-07T01:18:01;17.27;;;8.20;;
28343;SDS011;15597;50.914;6.638;2024-01-07T01:20:26;18.85;;;8.07;;
28343;SDS011;15597;50.914;6.638;2024-01-07T01:22:52;19.23;;;8.88;;
28343;SDS011;15597;50.914;6.638;2024-01-07T01:25:17;24.92;;;10.68;;
28343;SDS011;15597;50.914;6.638;2024-01-07T01:27:43;38.92;;;14.85;;
28343;SDS011;15597;50.914;6.638;2024-01-07T01:30:10;36.58;;;14.75;;
28343;SDS011;15597;50.914;6.638;2024-01-07T01:32:36;30.88;;;11.73;;
28343;SDS011;15597;50.914;6.638;2024-01-07T01:35:02;22.15;;;10.02;;
28343;SDS011;15597;50.914;6.638;2024-01-07T01:37:27;28.30;;;12.23;;
28343;SDS011;15597;50.914;6.638;2024-01-07T01:39:53;21.73;;;9.55;;
28343;SDS011;15597;50.914;6.638;2024-01-07T01:42:19;24.63;;;10.55;;
28343;SDS011;15597;50.914;6.638;2024-01-07T01:44:45;25.27;;;10.25;;
28343;SDS011;15597;50.914;6.638;2024-01-07T01:47:11;33.70;;;13.45;;
28343;SDS011;15597;50.914;6.638;2024-01-07T01:49:37;31.25;;;11.35;;
28343;SDS011;15597;50.914;6.638;2024-01-07T01:52:03;21.48;;;9.25;;
28343;SDS011;15597;50.914;6.638;2024-01-07T01:54:29;32.50;;;13.30;;
28343;SDS011;15597;50.914;6.638;2024-01-07T01:56:55;21.02;;;9.30;;
28343;SDS011;15597;50.914;6.638;2024-01-07T01:59:21;28.25;;;12.07;;
28343;SDS011;15597;50.914;6.638;2024-01-07T02:01:47;27.98;;;11.63;;
28343;SDS011;15597;50.914;6.638;2024-01-07T02:04:14;27.98;;;11.15;;
28343;SDS011;15597;50.914;6.638;2024-01-07T02:06:40;27.75;;;11.95;;
28343;SDS011;15597;50.914;6.638;2024-01-07T02:09:06;22.38;;;9.50;;
28343;SDS011;15597;50.914;6.638;2024-01-07T02:11:31;32.38;;;13.82;;
28343;SDS011;15597;50.914;6.638;2024-01-07T02:13:57;28.10;;;11.20;;
28343;SDS011;15597;50.914;6.638;2024-01-07T02:16:22;22.40;;;10.05;;
28343;SDS011;15597;50.914;6.638;2024-01-07T02:18:48;20.20;;;8.70;;
28343;SDS011;15597;50.914;6.638;2024-01-07T02:21:14;26.52;;;10.73;;
28343;SDS011;15597;50.914;6.638;2024-01-07T02:23:40;28.83;;;12.13;;
28343;SDS011;15597;50.914;6.638;2024-01-07T02:26:06;26.75;;;11.07;;
28343;SDS011;15597;50.914;6.638;2024-01-07T02:28:32;35.38;;;14.40;;
28343;SDS011;15597;50.914;6.638;2024-01-07T02:30:58;22.02;;;9.18;;
28343;SDS011;15597;50.914;6.638;2024-01-07T02:33:25;21.90;;;9.88;;
28343;SDS011;15597;50.914;6.638;2024-01-07T02:35:50;22.40;;;10.23;;
28343;SDS011;15597;50.914;6.638;2024-01-07T02:38:16;23.20;;;10.52;;
28343;SDS011;15597;50.914;6.638;2024-01-07T02:40:42;21.45;;;9.23;;
28343;SDS011;15597;50.914;6.638;2024-01-07T02:43:07;24.05;;;10.88;;
28343;SDS011;15597;50.914;6.638;2024-01-07T02:45:34;20.67;;;10.02;;
28343;SDS011;15597;50.914;6.638;2024-01-07T02:48:00;19.92;;;8.88;;
28343;SDS011;15597;50.914;6.638;2024-01-07T02:50:26;20.17;;;9.18;;
28343;SDS011;15597;50.914;6.638;2024-01-07T02:52:52;22.40;;;10.45;;
28343;SDS011;15597;50.914;6.638;2024-01-07T02:55:18;16.98;;;7.93;;
28343;SDS011;15597;50.914;6.638;2024-01-07T02:57:43;18.98;;;8.60;;
28343;SDS011;15597;50.914;6.638;2024-01-07T03:00:09;22.00;;;9.73;;
28343;SDS011;15597;50.914;6.638;2024-01-07T03:02:35;18.40;;;9.02;;
28343;SDS011;15597;50.914;6.638;2024-01-07T03:05:01;19.67;;;8.65;;
28343;SDS011;15597;50.914;6.638;2024-01-07T03:07:27;19.00;;;9.35;;
28343;SDS011;15597;50.914;6.638;2024-01-07T03:09:52;20.10;;;9.13;;
28343;SDS011;15597;50.914;6.638;2024-01-07T03:12:18;19.58;;;9.52;;
28343;SDS011;15597;50.914;6.638;2024-01-07T03:14:44;16.90;;;8.57;;
28343;SDS011;15597;50.914;6.638;2024-01-07T03:17:10;20.88;;;9.73;;
28343;SDS011;15597;50.914;6.638;2024-01-07T03:19:39;21.92;;;10.43;;
28343;SDS011;15597;50.914;6.638;2024-01-07T03:22:05;17.77;;;8.65;;
28343;SDS011;15597;50.914;6.638;2024-01-07T03:24:32;20.13;;;9.35;;
28343;SDS011;15597;50.914;6.638;2024-01-07T03:26:57;20.08;;;9.90;;
28343;SDS011;15597;50.914;6.638;2024-01-07T03:29:23;17.48;;;8.63;;
28343;SDS011;15597;50.914;6.638;2024-01-07T03:31:48;21.67;;;10.25;;
28343;SDS011;15597;50.914;6.638;2024-01-07T03:34:16;18.83;;;9.35;;
28343;SDS011;15597;50.914;6.638;2024-01-07T03:36:41;18.17;;;8.50;;
28343;SDS011;15597;50.914;6.638;2024-01-07T03:39:07;20.73;;;8.93;;
28343;SDS011;15597;50.914;6.638;2024-01-07T03:41:32;19.40;;;9.00;;
28343;SDS011;15597;50.914;6.638;2024-01-07T03:43:58;19.95;;;9.48;;
28343;SDS011;15597;50.914;6.638;2024-01-07T03:46:23;20.77;;;9.63;;
28343;SDS011;15597;50.914;6.638;2024-01-07T03:48:49;19.88;;;9.02;;
28343;SDS011;15597;50.914;6.638;2024-01-07T03:51:14;16.83;;;7.72;;
28343;SDS011;15597;50.914;6.638;2024-01-07T03:53:40;16.00;;;8.02;;
28343;SDS011;15597;50.914;6.638;2024-01-07T03:56:06;19.27;;;9.18;;
28343;SDS011;15597;50.914;6.638;2024-01-07T03:58:31;19.08;;;9.55;;
28343;SDS011;15597;50.914;6.638;2024-01-07T04:00:57;17.70;;;8.40;;
28343;SDS011;15597;50.914;6.638;2024-01-07T04:03:22;19.67;;;9.27;;
28343;SDS011;15597;50.914;6.638;2024-01-07T04:05:48;16.95;;;8.15;;
28343;SDS011;15597;50.914;6.638;2024-01-07T04:08:13;17.42;;;9.05;;
28343;SDS011;15597;50.914;6.638;2024-01-07T04:10:41;17.15;;;8.23;;
28343;SDS011;15597;50.914;6.638;2024-01-07T04:13:07;17.13;;;8.55;;
28343;SDS011;15597;50.914;6.638;2024-01-07T04:15:33;18.77;;;9.43;;
28343;SDS011;15597;50.914;6.638;2024-01-07T04:18:02;18.05;;;8.50;;
28343;SDS011;15597;50.914;6.638;2024-01-07T04:20:28;17.67;;;8.50;;
28343;SDS011;15597;50.914;6.638;2024-01-07T04:22:55;16.70;;;7.95;;
28343;SDS011;15597;50.914;6.638;2024-01-07T04:25:20;17.20;;;8.27;;
28343;SDS011;15597;50.914;6.638;2024-01-07T04:27:46;20.17;;;9.20;;
28343;SDS011;15597;50.914;6.638;2024-01-07T04:30:11;16.52;;;7.85;;
28343;SDS011;15597;50.914;6.638;2024-01-07T04:32:37;18.30;;;9.25;;
28343;SDS011;15597;50.914;6.638;2024-01-07T04:35:03;18.77;;;8.25;;
28343;SDS011;15597;50.914;6.638;2024-01-07T04:37:28;15.65;;;8.35;;
28343;SDS011;15597;50.914;6.638;2024-01-07T04:39:54;19.02;;;9.75;;
28343;SDS011;15597;50.914;6.638;2024-01-07T04:42:19;17.45;;;7.90;;
28343;SDS011;15597;50.914;6.638;2024-01-07T04:44:45;16.98;;;8.25;;
28343;SDS011;15597;50.914;6.638;2024-01-07T04:50:08;16.67;;;8.13;;
28343;SDS011;15597;50.914;6.638;2024-01-07T04:52:34;17.05;;;8.05;;
28343;SDS011;15597;50.914;6.638;2024-01-07T04:54:59;19.48;;;8.80;;
28343;SDS011;15597;50.914;6.638;2024-01-07T04:57:25;17.75;;;9.02;;
28343;SDS011;15597;50.914;6.638;2024-01-07T04:59:50;17.52;;;7.53;;
28343;SDS011;15597;50.914;6.638;2024-01-07T05:02:17;15.32;;;7.72;;
28343;SDS011;15597;50.914;6.638;2024-01-07T05:04:43;14.80;;;6.93;;
28343;SDS011;15597;50.914;6.638;2024-01-07T05:07:08;16.83;;;7.65;;
28343;SDS011;15597;50.914;6.638;2024-01-07T05:09:34;14.55;;;6.53;;
28343;SDS011;15597;50.914;6.638;2024-01-07T05:12:00;16.52;;;7.90;;
28343;SDS011;15597;50.914;6.638;2024-01-07T05:14:25;18.50;;;8.07;;
28343;SDS011;15597;50.914;6.638;2024-01-07T05:16:52;16.23;;;7.88;;
28343;SDS011;15597;50.914;6.638;2024-01-07T05:19:18;16.83;;;7.88;;
28343;SDS011;15597;50.914;6.638;2024-01-07T05:21:44;17.55;;;8.93;;
28343;SDS011;15597;50.914;6.638;2024-01-07T05:24:09;17.40;;;8.02;;
28343;SDS011;15597;50.914;6.638;2024-01-07T05:26:38;17.48;;;8.77;;
28343;SDS011;15597;50.914;6.638;2024-01-07T05:29:07;17.58;;;8.38;;
28343;SDS011;15597;50.914;6.638;2024-01-07T05:31:33;14.63;;;7.30;;
28343;SDS011;15597;50.914;6.638;2024-01-07T05:33:59;16.05;;;7.75;;
28343;SDS011;15597;50.914;6.638;2024-01-07T05:36:24;14.98;;;7.78;;
28343;SDS011;15597;50.914;6.638;2024-01-07T05:38:50;14.75;;;7.65;;
28343;SDS011;15597;50.914;6.638;2024-01-07T05:41:15;16.92;;;8.50;;
28343;SDS011;15597;50.914;6.638;2024-01-07T05:43:41;17.40;;;8.75;;
28343;SDS011;15597;50.914;6.638;2024-01-07T05:46:06;14.40;;;7.03;;
28343;SDS011;15597;50.914;6.638;2024-01-07T05:48:41;13.98;;;6.85;;
28343;SDS011;15597;50.914;6.638;2024-01-07T05:51:11;14.63;;;7.88;;
28343;SDS011;15597;50.914;6.638;2024-01-07T05:53:37;16.23;;;7.95;;
28343;SDS011;15597;50.914;6.638;2024-01-07T05:56:02;17.25;;;8.40;;
28343;SDS011;15597;50.914;6.638;2024-01-07T05:58:29;17.88;;;8.05;;
28343;SDS011;15597;50.914;6.638;2024-01-07T06:00:54;14.95;;;7.85;;
28343;SDS011;15597;50.914;6.638;2024-01-07T06:03:20;16.13;;;7.50;;
28343;SDS011;15597;50.914;6.638;2024-01-07T06:05:45;15.48;;;8.30;;
28343;SDS011;15597;50.914;6.638;2024-01-07T06:08:11;20.90;;;8.57;;
28343;SDS011;15597;50.914;6.638;2024-01-07T06:10:37;16.38;;;8.32;;
28343;SDS011;15597;50.914;6.638;2024-01-07T06:13:02;17.00;;;8.23;;
28343;SDS011;15597;50.914;6.638;2024-01-07T06:15:28;16.20;;;8.20;;
28343;SDS011;15597;50.914;6.638;2024-01-07T06:17:54;16.23;;;7.50;;
28343;SDS011;15597;50.914;6.638;2024-01-07T06:20:20;16.25;;;8.35;;
28343;SDS011;15597;50.914;6.638;2024-01-07T06:22:46;19.17;;;9.20;;
28343;SDS011;15597;50.914;6.638;2024-01-07T06:25:11;18.25;;;9.13;;
28343;SDS011;15597;50.914;6.638;2024-01-07T06:27:40;16.27;;;8.27;;
28343;SDS011;15597;50.914;6.638;2024-01-07T06:30:06;18.25;;;8.68;;
28343;SDS011;15597;50.914;6.638;2024-01-07T06:32:33;18.08;;;9.27;;
28343;SDS011;15597;50.914;6.638;2024-01-07T06:34:59;18.05;;;8.65;;
28343;SDS011;15597;50.914;6.638;2024-01-07T06:37:25;18.05;;;8.30;;
28343;SDS011;15597;50.914;6.638;2024-01-07T06:39:51;19.17;;;9.02;;
28343;SDS011;15597;50.914;6.638;2024-01-07T06:42:17;19.23;;;9.48;;
28343;SDS011;15597;50.914;6.638;2024-01-07T06:44:43;20.45;;;10.35;;
28343;SDS011;15597;50.914;6.638;2024-01-07T06:47:08;20.77;;;10.07;;
28343;SDS011;15597;50.914;6.638;2024-01-07T06:49:34;16.13;;;7.97;;
28343;SDS011;15597;50.914;6.638;2024-01-07T06:51:59;15.43;;;7.18;;
28343;SDS011;15597;50.914;6.638;2024-01-07T06:54:25;18.35;;;9.43;;
28343;SDS011;15597;50.914;6.638;2024-01-07T06:56:50;15.13;;;8.48;;
28343;SDS011;15597;50.914;6.638;2024-01-07T06:59:16;15.20;;;7.70;;
28343;SDS011;15597;50.914;6.638;2024-01-07T07:01:41;19.10;;;10.15;;
28343;SDS011;15597;50.914;6.638;2024-01-07T07:04:07;15.32;;;7.93;;
28343;SDS011;15597;50.914;6.638;2024-01-07T07:06:32;17.95;;;10.00;;
28343;SDS011;15597;50.914;6.638;2024-01-07T07:08:58;18.20;;;9.45;;
28343;SDS011;15597;50.914;6.638;2024-01-07T07:11:23;18.27;;;8.55;;
28343;SDS011;15597;50.914;6.638;2024-01-07T07:13:49;19.50;;;11.25;;
28343;SDS011;15597;50.914;6.638;2024-01-07T07:16:14;19.30;;;9.38;;
28343;SDS011;15597;50.914;6.638;2024-01-07T07:18:40;14.25;;;6.78;;
28343;SDS011;15597;50.914;6.638;2024-01-07T07:21:06;22.38;;;10.90;;
28343;SDS011;15597;50.914;6.638;2024-01-07T07:23:31;15.70;;;8.18;;
28343;SDS011;15597;50.914;6.638;2024-01-07T07:25:57;17.75;;;8.73;;
28343;SDS011;15597;50.914;6.638;2024-01-07T07:28:22;16.13;;;8.65;;
28343;SDS011;15597;50.914;6.638;2024-01-07T07:30:47;20.17;;;9.45;;
28343;SDS011;15597;50.914;6.638;2024-01-07T07:33:13;14.43;;;7.47;;
28343;SDS011;15597;50.914;6.638;2024-01-07T07:35:39;21.05;;;10.98;;
28343;SDS011;15597;50.914;6.638;2024-01-07T07:38:07;17.48;;;9.15;;
28343;SDS011;15597;50.914;6.638;2024-01-07T07:40:32;22.38;;;11.13;;
28343;SDS011;15597;50.914;6.638;2024-01-07T07:42:58;18.52;;;10.05;;
28343;SDS011;15597;50.914;6.638;2024-01-07T07:45:24;16.60;;;8.13;;
28343;SDS011;15597;50.914;6.638;2024-01-07T07:47:49;15.75;;;8.45;;
28343;SDS011;15597;50.914;6.638;2024-01-07T07:50:28;18.02;;;8.23;;
28343;SDS011;15597;50.914;6.638;2024-01-07T07:53:05;21.75;;;10.32;;
28343;SDS011;15597;50.914;6.638;2024-01-07T07:55:32;16.10;;;7.75;;
28343;SDS011;15597;50.914;6.638;2024-01-07T07:57:57;16.13;;;8.25;;
28343;SDS011;15597;50.914;6.638;2024-01-07T08:00:23;17.90;;;9.60;;
28343;SDS011;15597;50.914;6.638;2024-01-07T08:02:49;18.00;;;9.23;;
28343;SDS011;15597;50.914;6.638;2024-01-07T08:05:15;14.75;;;7.68;;
28343;SDS011;15597;50.914;6.638;2024-01-07T08:07:40;18.33;;;9.43;;
28343;SDS011;15597;50.914;6.638;2024-01-07T08:10:06;16.15;;;8.05;;
28343;SDS011;15597;50.914;6.638;2024-01-07T08:12:33;20.60;;;10.48;;
28343;SDS011;15597;50.914;6.638;2024-01-07T08:14:58;17.25;;;8.52;;
28343;SDS011;15597;50.914;6.638;2024-01-07T08:17:24;13.88;;;7.20;;
28343;SDS011;15597;50.914;6.638;2024-01-07T08:19:49;19.85;;;9.75;;
28343;SDS011;15597;50.914;6.638;2024-01-07T08:22:15;18.08;;;8.90;;
28343;SDS011;15597;50.914;6.638;2024-01-07T08:24:41;17.52;;;8.80;;
28343;SDS011;15597;50.914;6.638;2024-01-07T08:27:07;20.05;;;9.70;;
28343;SDS011;15597;50.914;6.638;2024-01-07T08:29:33;15.18;;;7.63;;
28343;SDS011;15597;50.914;6.638;2024-01-07T08:31:59;15.95;;;7.25;;
28343;SDS011;15597;50.914;6.638;2024-01-07T08:34:24;16.42;;;8.65;;
28343;SDS011;15597;50.914;6.638;2024-01-07T08:36:50;17.50;;;8.55;;
28343;SDS011;15597;50.914;6.638;2024-01-07T08:39:15;16.45;;;7.40;;
28343;SDS011;15597;50.914;6.638;2024-01-07T08:41:42;16.95;;;8.57;;
28343;SDS011;15597;50.914;6.638;2024-01-07T08:44:14;21.80;;;11.77;;
28343;SDS011;15597;50.914;6.638;2024-01-07T08:46:39;18.17;;;8.35;;
28343;SDS011;15597;50.914;6.638;2024-01-07T08:49:05;16.27;;;7.13;;
28343;SDS011;15597;50.914;6.638;2024-01-07T08:51:39;19.08;;;9.55;;
28343;SDS011;15597;50.914;6.638;2024-01-07T08:54:15;19.10;;;9.73;;
28343;SDS011;15597;50.914;6.638;2024-01-07T08:56:41;20.45;;;9.43;;
28343;SDS011;15597;50.914;6.638;2024-01-07T08:59:06;19.58;;;9.70;;
28343;SDS011;15597;50.914;6.638;2024-01-07T09:01:33;19.23;;;9.98;;
28343;SDS011;15597;50.914;6.638;2024-01-07T09:03:59;16.67;;;7.97;;
28343;SDS011;15597;50.914;6.638;2024-01-07T09:06:24;21.83;;;10.68;;
28343;SDS011;15597;50.914;6.638;2024-01-07T09:08:50;18.17;;;9.35;;
28343;SDS011;15597;50.914;6.638;2024-01-07T09:11:18;18.95;;;9.35;;
28343;SDS011;15597;50.914;6.638;2024-01-07T09:13:45;19.83;;;10.20;;
28343;SDS011;15597;50.914;6.638;2024-01-07T09:16:13;15.77;;;7.85;;
28343;SDS011;15597;50.914;6.638;2024-01-07T09:18:39;17.52;;;8.82;;
28343;SDS011;15597;50.914;6.638;2024-01-07T09:21:05;19.17;;;10.02;;
28343;SDS011;15597;50.914;6.638;2024-01-07T09:23:31;23.05;;;11.35;;
28343;SDS011;15597;50.914;6.638;2024-01-07T09:25:59;21.35;;;10.43;;
28343;SDS011;15597;50.914;6.638;2024-01-07T09:28:24;18.92;;;10.82;;
28343;SDS011;15597;50.914;6.638;2024-01-07T09:30:50;16.63;;;8.50;;
28343;SDS011;15597;50.914;6.638;2024-01-07T09:33:16;15.63;;;7.80;;
28343;SDS011;15597;50.914;6.638;2024-01-07T09:35:41;20.15;;;9.93;;
28343;SDS011;15597;50.914;6.638;2024-01-07T09:38:09;22.15;;;10.63;;
28343;SDS011;15597;50.914;6.638;2024-01-07T09:40:34;22.02;;;11.18;;
28343;SDS011;15597;50.914;6.638;2024-01-07T09:43:00;17.10;;;8.43;;
28343;SDS011;15597;50.914;6.638;2024-01-07T09:45:25;19.60;;;9.60;;
28343;SDS011;15597;50.914;6.638;2024-01-07T09:47:51;20.17;;;10.95;;
28343;SDS011;15597;50.914;6.638;2024-01-07T09:50:17;16.23;;;8.18;;
28343;SDS011;15597;50.914;6.638;2024-01-07T09:52:43;24.30;;;11.23;;
28343;SDS011;15597;50.914;6.638;2024-01-07T09:55:18;18.17;;;8.55;;
28343;SDS011;15597;50.914;6.638;2024-01-07T09:57:52;18.17;;;9.70;;
28343;SDS011;15597;50.914;6.638;2024-01-07T10:00:18;20.17;;;10.32;;
28343;SDS011;15597;50.914;6.638;2024-01-07T10:02:44;16.60;;;8.55;;
28343;SDS011;15597;50.914;6.638;2024-01-07T10:05:09;20.45;;;10.02;;
28343;SDS011;15597;50.914;6.638;2024-01-07T10:07:35;22.60;;;11.88;;
28343;SDS011;15597;50.914;6.638;2024-01-07T10:10:11;15.77;;;8.60;;
28343;SDS011;15597;50.914;6.638;2024-01-07T10:12:40;20.52;;;11.13;;
28343;SDS011;15597;50.914;6.638;2024-01-07T10:15:06;22.42;;;11.52;;
28343;SDS011;15597;50.914;6.638;2024-01-07T10:17:32;19.75;;;9.95;;
28343;SDS011;15597;50.914;6.638;2024-01-07T10:19:58;17.67;;;8.55;;
28343;SDS011;15597;50.914;6.638;2024-01-07T10:22:24;18.42;;;9.05;;
28343;SDS011;15597;50.914;6.638;2024-01-07T10:24:51;20.00;;;9.48;;
28343;SDS011;15597;50.914;6.638;2024-01-07T10:27:17;19.23;;;8.23;;
28343;SDS011;15597;50.914;6.638;2024-01-07T10:29:42;15.70;;;8.43;;
28343;SDS011;15597;50.914;6.638;2024-01-07T10:32:08;19.10;;;8.40;;
28343;SDS011;15597;50.914;6.638;2024-01-07T10:34:34;15.10;;;7.20;;
28343;SDS011;15597;50.914;6.638;2024-01-07T10:37:02;15.93;;;8.32;;
28343;SDS011;15597;50.914;6.638;2024-01-07T10:39:30;11.75;;;6.18;;
28343;SDS011;15597;50.914;6.638;2024-01-07T10:41:56;12.50;;;7.15;;
28343;SDS011;15597;50.914;6.638;2024-01-07T10:44:29;13.07;;;6.50;;
28343;SDS011;15597;50.914;6.638;2024-01-07T10:46:56;14.20;;;7.55;;
28343;SDS011;15597;50.914;6.638;2024-01-07T10:49:24;12.23;;;5.93;;
28343;SDS011;15597;50.914;6.638;2024-01-07T10:51:56;12.70;;;6.72;;
28343;SDS011;15597;50.914;6.638;2024-01-07T10:54:34;13.82;;;7.45;;
28343;SDS011;15597;50.914;6.638;2024-01-07T10:57:24;14.70;;;7.50;;
28343;SDS011;15597;50.914;6.638;2024-01-07T10:59:50;13.38;;;7.45;;
28343;SDS011;15597;50.914;6.638;2024-01-07T11:02:16;14.18;;;7.43;;
28343;SDS011;15597;50.914;6.638;2024-01-07T11:04:45;13.20;;;7.28;;
28343;SDS011;15597;50.914;6.638;2024-01-07T11:07:29;16.08;;;7.47;;
28343;SDS011;15597;50.914;6.638;2024-01-07T11:12:35;15.55;;;8.27;;
28343;SDS011;15597;50.914;6.638;2024-01-07T11:15:00;14.30;;;7.30;;
28343;SDS011;15597;50.914;6.638;2024-01-07T11:20:04;13.55;;;7.70;;
28343;SDS011;15597;50.914;6.638;2024-01-07T11:22:31;15.30;;;7.95;;
28343;SDS011;15597;50.914;6.638;2024-01-07T11:24:58;15.02;;;7.22;;
28343;SDS011;15597;50.914;6.638;2024-01-07T11:27:28;14.23;;;8.00;;
28343;SDS011;15597;50.914;6.638;2024-01-07T11:32:23;16.42;;;8.80;;
28343;SDS011;15597;50.914;6.638;2024-01-07T11:34:52;15.07;;;7.85;;
28343;SDS011;15597;50.914;6.638;2024-01-07T11:37:19;14.85;;;8.32;;
28343;SDS011;15597;50.914;6.638;2024-01-07T11:39:45;18.52;;;8.55;;
28343;SDS011;15597;50.914;6.638;2024-01-07T11:42:11;17.13;;;8.65;;
28343;SDS011;15597;50.914;6.638;2024-01-07T11:44:37;16.42;;;7.95;;
28343;SDS011;15597;50.914;6.638;2024-01-07T11:47:03;17.70;;;8.95;;
28343;SDS011;15597;50.914;6.638;2024-01-07T11:49:31;17.05;;;9.23;;
28343;SDS011;15597;50.914;6.638;2024-01-07T11:51:58;16.10;;;8.50;;
28343;SDS011;15597;50.914;6.638;2024-01-07T11:54:23;17.08;;;8.45;;
28343;SDS011;15597;50.914;6.638;2024-01-07T11:56:49;15.43;;;7.90;;
28343;SDS011;15597;50.914;6.638;2024-01-07T11:59:15;14.90;;;7.07;;
28343;SDS011;15597;50.914;6.638;2024-01-07T12:01:40;16.35;;;8.20;;
28343;SDS011;15597;50.914;6.638;2024-01-07T12:04:06;18.55;;;9.73;;
28343;SDS011;15597;50.914;6.638;2024-01-07T12:06:33;13.93;;;7.38;;
28343;SDS011;15597;50.914;6.638;2024-01-07T12:09:00;15.68;;;8.18;;
28343;SDS011;15597;50.914;6.638;2024-01-07T12:11:25;15.07;;;8.27;;
28343;SDS011;15597;50.914;6.638;2024-01-07T12:13:52;15.82;;;7.70;;
28343;SDS011;15597;50.914;6.638;2024-01-07T12:16:17;19.85;;;8.63;;
28343;SDS011;15597;50.914;6.638;2024-01-07T12:18:43;16.15;;;7.88;;
28343;SDS011;15597;50.914;6.638;2024-01-07T12:21:09;16.15;;;7.50;;
28343;SDS011;15597;50.914;6.638;2024-01-07T12:23:35;14.93;;;7.70;;
28343;SDS011;15597;50.914;6.638;2024-01-07T12:26:08;15.02;;;7.30;;
28343;SDS011;15597;50.914;6.638;2024-01-07T12:28:35;15.23;;;7.57;;
28343;SDS011;15597;50.914;6.638;2024-01-07T12:31:02;16.05;;;7.82;;
28343;SDS011;15597;50.914;6.638;2024-01-07T12:33:29;14.18;;;7.10;;
28343;SDS011;15597;50.914;6.638;2024-01-07T12:35:56;15.82;;;7.53;;
28343;SDS011;15597;50.914;6.638;2024-01-07T12:38:26;12.73;;;6.78;;
28343;SDS011;15597;50.914;6.638;2024-01-07T12:40:52;13.20;;;7.57;;
28343;SDS011;15597;50.914;6.638;2024-01-07T12:43:18;12.32;;;7.03;;
28343;SDS011;15597;50.914;6.638;2024-01-07T12:45:44;13.32;;;7.10;;
28343;SDS011;15597;50.914;6.638;2024-01-07T12:48:11;13.77;;;6.85;;
28343;SDS011;15597;50.914;6.638;2024-01-07T12:50:36;11.23;;;6.40;;
28343;SDS011;15597;50.914;6.638;2024-01-07T12:53:02;13.57;;;8.07;;
28343;SDS011;15597;50.914;6.638;2024-01-07T12:55:28;15.18;;;6.65;;
28343;SDS011;15597;50.914;6.638;2024-01-07T12:57:54;11.93;;;6.07;;
28343;SDS011;15597;50.914;6.638;2024-01-07T13:00:21;13.05;;;6.93;;
28343;SDS011;15597;50.914;6.638;2024-01-07T13:02:47;15.82;;;7.40;;
28343;SDS011;15597;50.914;6.638;2024-01-07T13:05:14;12.07;;;7.10;;
28343;SDS011;15597;50.914;6.638;2024-01-07T13:07:39;13.52;;;7.47;;
28343;SDS011;15597;50.914;6.638;2024-01-07T13:10:05;14.18;;;6.68;;
28343;SDS011;15597;50.914;6.638;2024-01-07T13:12:31;12.88;;;5.93;;
28343;SDS011;15597;50.914;6.638;2024-01-07T13:14:57;12.52;;;6.25;;
28343;SDS011;15597;50.914;6.638;2024-01-07T13:17:22;11.77;;;6.07;;
28343;SDS011;15597;50.914;6.638;2024-01-07T13:19:48;11.75;;;6.32;;
28343;SDS011;15597;50.914;6.638;2024-01-07T13:22:13;12.95;;;5.93;;
28343;SDS011;15597;50.914;6.638;2024-01-07T13:24:40;12.45;;;6.25;;
28343;SDS011;15597;50.914;6.638;2024-01-07T13:27:06;16.63;;;6.30;;
28343;SDS011;15597;50.914;6.638;2024-01-07T13:29:33;11.95;;;6.20;;
28343;SDS011;15597;50.914;6.638;2024-01-07T13:32:00;10.60;;;5.40;;
28343;SDS011;15597;50.914;6.638;2024-01-07T13:34:25;11.55;;;5.55;;
28343;SDS011;15597;50.914;6.638;2024-01-07T13:36:51;11.63;;;6.00;;
28343;SDS011;15597;50.914;6.638;2024-01-07T13:39:17;11.48;;;6.47;;
28343;SDS011;15597;50.914;6.638;2024-01-07T13:41:43;10.13;;;5.82;;
28343;SDS011;15597;50.914;6.638;2024-01-07T13:44:09;11.40;;;5.97;;
28343;SDS011;15597;50.914;6.638;2024-01-07T13:46:48;11.75;;;5.97;;
28343;SDS011;15597;50.914;6.638;2024-01-07T13:49:14;12.15;;;5.68;;
28343;SDS011;15597;50.914;6.638;2024-01-07T13:51:40;13.25;;;6.50;;
28343;SDS011;15597;50.914;6.638;2024-01-07T13:54:06;10.75;;;5.13;;
28343;SDS011;15597;50.914;6.638;2024-01-07T13:56:32;10.43;;;5.78;;
28343;SDS011;15597;50.914;6.638;2024-01-07T13:59:01;10.52;;;5.40;;
28343;SDS011;15597;50.914;6.638;2024-01-07T14:01:28;13.07;;;5.70;;
28343;SDS011;15597;50.914;6.638;2024-01-07T14:03:54;10.77;;;5.47;;
28343;SDS011;15597;50.914;6.638;2024-01-07T14:06:20;9.05;;;5.35;;
28343;SDS011;15597;50.914;6.638;2024-01-07T14:08:46;9.27;;;4.57;;
28343;SDS011;15597;50.914;6.638;2024-01-07T14:11:12;10.18;;;5.50;;
28343;SDS011;15597;50.914;6.638;2024-01-07T14:13:38;10.18;;;4.95;;
28343;SDS011;15597;50.914;6.638;2024-01-07T14:16:03;11.25;;;5.97;;
28343;SDS011;15597;50.914;6.638;2024-01-07T14:18:29;12.48;;;5.63;;
28343;SDS011;15597;50.914;6.638;2024-01-07T14:20:55;10.93;;;5.45;;
28343;SDS011;15597;50.914;6.638;2024-01-07T14:23:21;9.98;;;5.35;;
28343;SDS011;15597;50.914;6.638;2024-01-07T14:25:46;13.73;;;5.40;;
28343;SDS011;15597;50.914;6.638;2024-01-07T14:28:12;9.95;;;5.10;;
28343;SDS011;15597;50.914;6.638;2024-01-07T14:30:38;11.15;;;5.18;;
28343;SDS011;15597;50.914;6.638;2024-01-07T14:33:03;8.82;;;4.90;;
28343;SDS011;15597;50.914;6.638;2024-01-07T14:35:29;12.10;;;4.93;;
28343;SDS011;15597;50.914;6.638;2024-01-07T14:37:55;10.35;;;5.07;;